PAGY/SGY METAR and TAF weather

Enter ICAO airport designator
Station Type Date Time Source
PAGY METAR 2019/02/20 06:53 UTC NOAA

PAGY 200653Z AUTO 00000KT 10SM OVC075 M01/M02 A3001 RMK AO2 SLP163 T10061017 TSNO


Station Type Date Time Source
PAGY Decoded METAR 2019/02/20 06:53 UTC NOAA

SKAGWAY AIRPORT, AK, United States (PAGY) 59-28N 135-19W 5M
Feb 20, 2019 - 01:53 AM EST / 2019.02.20 0653 UTC
Wind: Calm:0
Visibility: 10 mile(s):0
Sky conditions: overcast
Temperature: 30.9 F (-0.6 C)
Dew Point: 28.9 F (-1.7 C)
Relative Humidity: 92%
Pressure (altimeter): 30.01 in. Hg (1016 hPa)
ob: PAGY 200653Z AUTO 00000KT 10SM OVC075 M01/M02 A3001 RMK AO2 SLP163 T10061017 TSNO
cycle: 7

Station Type Date Time Source
PAGY TAF 2019/02/20 06:33 UTC NOAA

TAF PAGY 200531Z 2006/2106 04003KT P6SM BKN060
TEMPO 2010/2014 04012KT
FM201400 04012G20KT P6SM SKC
AMD LTD TO CLD VIS AND WIND


Example: see airport list